RJKN(METAR)
08/15 04:00
METAR RJKN 141900Z AUTO 12004KT 9999 NCD 27/25 Q1010 RMK A2984=
戻る
トップページへ戻る
IMOC Co,.Ltd.